Time;durP1;ratioP1;P1;durP2;ratioP2;P2;SDS_P1;SDS_P2;PMS_P1;PMS_P2;Temp;Humidity;BMP_temperature;BMP_pressure;BME280_temperature;BME280_humidity;BME280_pressure;Samples;Min_cycle;Max_cycle;Signal;HPM_P1;HPM_P2
2022/09/24 00:01:50;;;;;;;11.00;4.50;;;;;;;6.36;100.00;99463.86;100992;1334;22494;-32
2022/09/24 00:04:17;;;;;;;11.10;5.50;;;;;;;6.35;100.00;99456.02;101084;1334;24484;-32
2022/09/24 00:06:45;;;;;;;6.90;5.20;;;;;;;6.33;100.00;99458.70;101076;1328;23106;-36
2022/09/24 00:09:11;;;;;;;10.20;6.90;;;;;;;6.31;100.00;99459.23;101079;1334;22754;-35
2022/09/24 00:11:37;;;;;;;10.90;7.50;;;;;;;6.29;100.00;99459.51;101028;1328;24373;-35
2022/09/24 00:14:03;;;;;;;10.70;5.60;;;;;;;6.26;100.00;99455.51;100888;1336;23369;-33
2022/09/24 00:16:32;;;;;;;4.20;3.00;;;;;;;6.24;100.00;99450.44;101093;1327;22732;-35
2022/09/24 00:18:58;;;;;;;9.70;5.30;;;;;;;6.20;100.00;99447.01;101069;1334;23103;-32
2022/09/24 00:21:26;;;;;;;8.70;6.70;;;;;;;6.17;100.00;99444.23;101066;1336;22510;-35
2022/09/24 00:23:53;;;;;;;11.50;8.60;;;;;;;6.14;100.00;99439.77;101063;1334;24372;-35
2022/09/24 00:28:50;;;;;;;8.90;5.50;;;;;;;6.06;100.00;99431.15;101072;1336;24147;-35
2022/09/24 00:31:15;;;;;;;13.40;7.10;;;;;;;6.03;100.00;99433.13;101012;1326;22988;-33
2022/09/24 00:33:42;;;;;;;;;;;;;;;5.98;100.00;99431.54;101067;1334;22887;-32
2022/09/24 00:36:07;;;;;;;9.30;6.00;;;;;;;5.93;100.00;99428.66;100986;1335;22903;-35
2022/09/24 00:38:33;;;;;;;9.90;6.30;;;;;;;5.89;100.00;99431.30;101010;1334;24469;-32
2022/09/24 00:40:59;;;;;;;9.50;6.30;;;;;;;5.85;100.00;99429.40;101037;1334;24372;-31
2022/09/24 00:43:27;;;;;;;8.60;5.30;;;;;;;5.79;100.00;99425.36;101040;1335;23096;-32
2022/09/24 00:45:55;;;;;;;14.00;6.70;;;;;;;5.74;100.00;99418.70;101083;1320;24469;-32
2022/09/24 00:48:21;;;;;;;9.40;6.00;;;;;;;5.68;100.00;99412.93;100907;1335;22840;-32
2022/09/24 00:50:47;;;;;;;8.40;5.20;;;;;;;5.62;100.00;99414.59;100294;1327;1081614;-31
2022/09/24 00:53:14;;;;;;;4.60;2.90;;;;;;;5.56;100.00;99413.34;101013;1334;23225;-32
2022/09/24 00:55:42;;;;;;;5.50;3.70;;;;;;;5.49;100.00;99412.80;101042;1328;22742;-35
2022/09/24 00:58:07;;;;;;;12.30;4.90;;;;;;;5.42;100.00;99408.02;101075;1327;24578;-32
2022/09/24 01:00:35;;;;;;;5.30;3.30;;;;;;;5.36;100.00;99411.00;101044;1336;23881;-35
2022/09/24 01:03:04;;;;;;;8.80;5.90;;;;;;;5.29;100.00;99408.76;101039;1327;24871;-32
2022/09/24 01:05:30;;;;;;;9.50;5.40;;;;;;;5.24;100.00;99404.02;100981;1336;24492;-35
2022/09/24 01:07:56;;;;;;;7.30;5.30;;;;;;;5.20;100.00;99407.37;101004;1328;22843;-35
2022/09/24 01:13:23;;;;;;;10.50;6.20;;;;;;;5.08;100.00;99404.23;100893;1336;23317;-32
2022/09/24 01:15:54;;;;;;;5.40;3.20;;;;;;;5.00;100.00;99401.48;101053;1336;22623;-32
2022/09/24 01:18:27;;;;;;;11.60;5.30;;;;;;;4.96;100.00;99404.39;101040;1328;22879;-32
2022/09/24 01:21:01;;;;;;;4.50;2.80;;;;;;;4.97;100.00;99401.85;101063;1336;24256;-31
2022/09/24 01:23:37;;;;;;;8.10;4.80;;;;;;;4.93;100.00;99401.35;100811;1328;23133;-35
2022/09/24 01:26:18;;;;;;;14.10;8.80;;;;;;;4.88;100.00;99403.79;101063;1334;22537;-31
2022/09/24 01:28:51;;;;;;;10.30;6.60;;;;;;;4.83;100.00;99402.38;101002;1328;23216;-35
2022/09/24 01:31:28;;;;;;;16.50;8.70;;;;;;;4.81;100.00;99392.81;101061;1336;25586;-35
2022/09/24 01:33:54;;;;;;;11.20;6.30;;;;;;;4.81;100.00;99390.33;101071;1335;22507;-31
2022/09/24 01:36:20;;;;;;;15.30;7.50;;;;;;;4.82;100.00;99390.30;101044;1334;23083;-32
2022/09/24 01:38:46;;;;;;;22.80;11.40;;;;;;;4.80;100.00;99383.33;101014;1335;22742;-33
2022/09/24 01:41:12;;;;;;;24.30;11.10;;;;;;;4.83;100.00;99382.17;101109;1334;22748;-35
2022/09/24 01:43:38;;;;;;;11.10;7.90;;;;;;;4.85;100.00;99385.52;101061;1318;23490;-31
2022/09/24 01:46:05;;;;;;;21.00;9.50;;;;;;;4.89;100.00;99390.36;100833;1327;22753;-35
2022/09/24 01:48:34;;;;;;;20.20;10.30;;;;;;;4.91;100.00;99385.96;101084;1328;22832;-35
2022/09/24 01:51:07;;;;;;;15.90;9.00;;;;;;;4.94;100.00;99383.46;100965;1324;25321;-31
2022/09/24 01:53:36;;;;;;;26.70;7.70;;;;;;;4.98;100.00;99386.96;101053;1334;24453;-35
2022/09/24 01:56:07;;;;;;;14.80;10.10;;;;;;;4.99;100.00;99385.23;101110;1336;25457;-36
2022/09/24 01:58:39;;;;;;;10.80;8.00;;;;;;;5.03;100.00;99386.05;101049;1336;22620;-35
2022/09/24 02:01:07;;;;;;;17.80;9.20;;;;;;;5.06;100.00;99384.86;101047;1336;25232;-35
2022/09/24 02:03:35;;;;;;;21.10;7.80;;;;;;;5.08;100.00;99383.73;101096;1328;22994;-32
2022/09/24 02:06:07;;;;;;;14.20;8.80;;;;;;;5.10;100.00;99380.25;101042;1335;24373;-35
2022/09/24 02:08:37;;;;;;;16.10;9.30;;;;;;;5.12;100.00;99379.25;101032;1328;22624;-35
2022/09/24 02:11:07;;;;;;;14.90;7.00;;;;;;;5.15;100.00;99374.17;101093;1325;24353;-32
2022/09/24 02:13:38;;;;;;;11.50;6.50;;;;;;;5.19;100.00;99374.81;101099;1318;25326;-35
2022/09/24 02:16:04;;;;;;;10.10;6.60;;;;;;;5.22;100.00;99375.38;101027;1336;22522;-35
2022/09/24 02:18:34;;;;;;;18.00;9.50;;;;;;;5.24;100.00;99376.06;101095;1328;22502;-32
2022/09/24 02:21:02;;;;;;;11.40;7.70;;;;;;;5.27;100.00;99372.41;101095;1317;22869;-32
2022/09/24 02:23:27;;;;;;;23.40;8.70;;;;;;;5.29;100.00;99373.00;101011;1331;22501;-35
2022/09/24 02:25:57;;;;;;;7.50;6.10;;;;;;;5.32;100.00;99373.84;101017;1336;22519;-34
2022/09/24 02:28:23;;;;;;;12.40;7.60;;;;;;;5.35;100.00;99374.39;101039;1336;23025;-31
2022/09/24 02:30:52;;;;;;;14.60;8.20;;;;;;;5.41;100.00;99377.09;101039;1328;23713;-31
2022/09/24 02:35:47;;;;;;;12.00;7.50;;;;;;;5.46;100.00;99369.97;101019;1330;23103;-32
2022/09/24 02:38:15;;;;;;;12.00;8.20;;;;;;;5.50;100.00;99368.85;101045;1334;24429;-35
2022/09/24 02:40:41;;;;;;;16.70;11.20;;;;;;;5.53;100.00;99367.50;100912;1336;24342;-36
2022/09/24 02:43:07;;;;;;;12.70;7.80;;;;;;;5.54;100.00;99366.95;101059;1334;23353;-35
2022/09/24 02:45:32;;;;;;;10.20;5.40;;;;;;;5.56;100.00;99366.42;101057;1336;24317;-36
2022/09/24 02:47:58;;;;;;;13.00;6.90;;;;;;;5.61;100.00;99367.13;100960;1336;23080;-32
2022/09/24 02:50:24;;;;;;;12.10;7.10;;;;;;;5.62;100.00;99365.73;101048;1328;22708;-32
2022/09/24 02:52:49;;;;;;;17.70;9.60;;;;;;;5.68;100.00;99366.44;101033;1334;23233;-35
2022/09/24 02:55:15;;;;;;;12.60;6.90;;;;;;;5.70;100.00;99362.98;101057;1334;22813;-35
2022/09/24 02:57:41;;;;;;;18.50;9.50;;;;;;;5.73;100.00;99367.99;101019;1335;25561;-35
2022/09/24 03:00:07;;;;;;;12.70;8.20;;;;;;;5.76;100.00;99359.88;101077;1336;24342;-42
2022/09/24 03:02:33;;;;;;;16.30;9.80;;;;;;;5.76;100.00;99356.81;101053;1328;24295;-35
2022/09/24 03:04:58;;;;;;;16.40;10.60;;;;;;;5.75;100.00;99355.88;101021;1334;23080;-32
2022/09/24 03:07:24;;;;;;;17.50;9.60;;;;;;;5.76;100.00;99354.63;101073;1328;24473;-32
2022/09/24 03:09:50;;;;;;;17.10;9.30;;;;;;;5.79;100.00;99356.68;101020;1328;22891;-32
2022/09/24 03:12:15;;;;;;;12.30;7.90;;;;;;;5.78;100.00;99352.27;101037;1336;24474;-36
2022/09/24 03:14:41;;;;;;;19.40;10.30;;;;;;;5.80;100.00;99349.47;101029;1328;22708;-32
2022/09/24 03:17:06;;;;;;;11.70;8.10;;;;;;;5.81;100.00;99347.91;101124;1320;24372;-37
2022/09/24 03:19:33;;;;;;;22.70;7.60;;;;;;;5.83;100.00;99355.27;101028;1327;24471;-32
2022/09/24 03:21:58;;;;;;;14.50;8.50;;;;;;;5.88;100.00;99356.05;101075;1334;22883;-32
2022/09/24 03:24:24;;;;;;;14.10;8.60;;;;;;;5.91;100.00;99352.71;101041;1326;22499;-36
2022/09/24 03:26:49;;;;;;;11.30;7.10;;;;;;;5.91;100.00;99353.07;101040;1334;24363;-35
2022/09/24 03:30:58;;;;;;;19.10;9.00;;;;;;;5.92;100.00;99355.08;101088;1334;23105;-35
2022/09/24 03:32:02;;;;;;;7.60;5.00;;;;;;;5.97;100.00;99354.36;101035;1336;22877;-35
2022/09/24 03:34:27;;;;;;;12.30;7.40;;;;;;;6.00;100.00;99349.63;101002;1334;22738;-35
2022/09/24 03:36:53;;;;;;;13.30;8.20;;;;;;;6.00;100.00;99349.52;101065;1328;23216;-35
2022/09/24 03:39:18;;;;;;;14.50;9.30;;;;;;;6.01;100.00;99345.34;101027;1328;23200;-35
2022/09/24 03:41:44;;;;;;;15.70;7.90;;;;;;;6.02;100.00;99338.83;101131;1334;23216;-36
2022/09/24 03:44:10;;;;;;;10.90;7.30;;;;;;;6.03;100.00;99336.39;101086;1327;22854;-32
2022/09/24 03:46:35;;;;;;;16.70;9.80;;;;;;;6.04;100.00;99336.14;101024;1334;23116;-35
2022/09/24 03:49:01;;;;;;;18.00;9.10;;;;;;;6.07;100.00;99335.99;100981;1334;23194;-36
2022/09/24 03:51:26;;;;;;;19.20;9.40;;;;;;;6.10;100.00;99340.85;101061;1336;22882;-32
2022/09/24 03:53:52;;;;;;;19.00;11.10;;;;;;;6.11;100.00;99333.95;101046;1334;24367;-36
2022/09/24 03:56:17;;;;;;;18.90;11.20;;;;;;;6.13;100.00;99332.41;101005;1334;24363;-35
2022/09/24 03:58:46;;;;;;;11.70;8.40;;;;;;;6.14;100.00;99334.41;101013;1328;22737;-32
2022/09/24 04:01:11;;;;;;;12.90;7.60;;;;;;;6.14;100.00;99334.56;101077;1328;24372;-33
2022/09/24 04:03:37;;;;;;;13.00;8.60;;;;;;;6.15;100.00;99331.08;101105;1328;24436;-35
2022/09/24 04:06:04;;;;;;;13.10;9.30;;;;;;;6.16;100.00;99331.54;100809;1336;22754;-31
2022/09/24 04:08:30;;;;;;;10.90;8.10;;;;;;;6.16;100.00;99330.80;101040;1334;24365;-31
2022/09/24 04:10:56;;;;;;;11.00;7.00;;;;;;;6.14;100.00;99330.67;100937;1336;23241;-35
2022/09/24 04:13:21;;;;;;;9.60;7.20;;;;;;;6.16;100.00;99330.39;100857;1333;22887;-31
2022/09/24 04:15:49;;;;;;;11.90;8.30;;;;;;;6.18;100.00;99331.30;101035;1320;24393;-34
2022/09/24 04:18:15;;;;;;;16.90;10.20;;;;;;;6.20;100.00;99330.84;101039;1335;24529;-31
2022/09/24 04:20:40;;;;;;;11.60;7.70;;;;;;;6.22;100.00;99329.44;101066;1321;23080;-31
2022/09/24 04:23:07;;;;;;;15.00;9.60;;;;;;;6.21;100.00;99328.39;101052;1331;23240;-31
2022/09/24 04:25:32;;;;;;;25.00;10.80;;;;;;;6.20;100.00;99330.63;101028;1336;24587;-31
2022/09/24 04:28:00;;;;;;;23.00;10.30;;;;;;;6.21;100.00;99325.80;101069;1334;22731;-31
2022/09/24 04:30:26;;;;;;;18.70;8.80;;;;;;;6.20;100.00;99323.23;101070;1334;22513;-35
2022/09/24 04:32:52;;;;;;;12.30;8.50;;;;;;;6.21;100.00;99322.56;101024;1334;22729;-32
2022/09/24 04:35:19;;;;;;;16.10;9.10;;;;;;;6.25;100.00;99323.88;101047;1334;23023;-31
2022/09/24 04:37:45;;;;;;;16.40;8.90;;;;;;;6.28;100.00;99323.41;101067;1334;24363;-34
2022/09/24 04:40:11;;;;;;;16.90;11.10;;;;;;;6.28;100.00;99321.45;101049;1334;24293;-34
2022/09/24 04:42:38;;;;;;;17.80;9.60;;;;;;;6.30;100.00;99319.20;101063;1328;24453;-31
2022/09/24 04:45:06;;;;;;;18.20;8.80;;;;;;;6.32;100.00;99313.70;100878;1336;22738;-36
2022/09/24 04:47:33;;;;;;;16.20;8.30;;;;;;;6.32;100.00;99313.04;101081;1334;24353;-32
2022/09/24 04:50:00;;;;;;;14.20;7.70;;;;;;;6.32;100.00;99309.27;101012;1323;22865;-32
2022/09/24 04:52:28;;;;;;;20.50;11.00;;;;;;;6.34;100.00;99308.90;101063;1334;24315;-33
2022/09/24 04:54:56;;;;;;;14.90;9.50;;;;;;;6.34;100.00;99308.00;101067;1335;22493;-35
2022/09/24 04:57:22;;;;;;;17.00;10.30;;;;;;;6.35;100.00;99307.36;100835;1335;24363;-32
2022/09/24 04:59:48;;;;;;;17.40;10.60;;;;;;;6.37;100.00;99306.59;101072;1334;23043;-35
2022/09/24 05:02:13;;;;;;;17.20;9.70;;;;;;;6.37;100.00;99304.41;101035;1328;23243;-35
2022/09/24 05:04:39;;;;;;;23.90;10.20;;;;;;;6.39;100.00;99303.00;101049;1334;24838;-35
2022/09/24 05:07:05;;;;;;;24.50;10.90;;;;;;;6.39;100.00;99302.77;101030;1334;24293;-35
2022/09/24 05:09:31;;;;;;;18.50;9.70;;;;;;;6.40;100.00;99302.31;101057;1327;24267;-32
2022/09/24 05:11:57;;;;;;;20.10;10.80;;;;;;;6.40;100.00;99303.54;101061;1333;22858;-36
2022/09/24 05:14:24;;;;;;;21.60;11.40;;;;;;;6.40;100.00;99296.77;101086;1318;22843;-31
2022/09/24 05:16:50;;;;;;;22.00;11.30;;;;;;;6.41;100.00;99295.67;101008;1334;22560;-31
2022/09/24 05:19:15;;;;;;;17.80;11.60;;;;;;;6.41;100.00;99296.54;101022;1327;23106;-35
2022/09/24 05:21:41;;;;;;;25.30;12.50;;;;;;;6.41;100.00;99298.27;101086;1317;25004;-32
2022/09/24 05:24:06;;;;;;;17.00;9.90;;;;;;;6.44;100.00;99296.65;100986;1334;24372;-35
2022/09/24 05:29:01;;;;;;;19.00;10.70;;;;;;;6.50;100.00;99298.36;101093;1323;22864;-32
2022/09/24 05:31:27;;;;;;;10.80;6.90;;;;;;;6.54;100.00;99300.34;101028;1318;24439;-32
2022/09/24 05:33:53;;;;;;;17.90;9.90;;;;;;;6.60;100.00;99298.16;101113;1334;22738;-32
2022/09/24 05:36:19;;;;;;;15.30;9.30;;;;;;;6.65;100.00;99298.65;101008;1334;22742;-32
2022/09/24 05:38:44;;;;;;;26.50;12.20;;;;;;;6.71;100.00;99298.84;100887;1339;23206;-31
2022/09/24 05:41:10;;;;;;;33.80;13.50;;;;;;;6.75;100.00;99300.67;101035;1327;22729;-31
2022/09/24 05:43:36;;;;;;;13.60;9.30;;;;;;;6.78;100.00;99300.64;100929;1336;22764;-33
2022/09/24 05:46:02;;;;;;;21.10;12.00;;;;;;;6.84;100.00;99302.15;101108;1334;22865;-34
2022/09/24 05:48:28;;;;;;;14.40;9.10;;;;;;;6.89;100.00;99301.73;101088;1333;22725;-31
2022/09/24 05:50:54;;;;;;;14.20;10.20;;;;;;;6.94;100.00;99301.56;101067;1335;22754;-34
2022/09/24 05:53:20;;;;;;;15.90;11.40;;;;;;;7.01;100.00;99299.48;101050;1328;23519;-32
2022/09/24 05:55:46;;;;;;;22.40;10.40;;;;;;;7.09;100.00;99302.17;100834;1335;22751;-31
2022/09/24 05:58:12;;;;;;;17.70;11.00;;;;;;;7.13;100.00;99303.83;101041;1328;24261;-34
2022/09/24 06:00:37;;;;;;;22.80;10.50;;;;;;;7.19;100.00;99305.95;101061;1328;22721;-35
2022/09/24 06:03:06;;;;;;;21.40;11.00;;;;;;;7.22;100.00;99306.70;101071;1331;23223;-35
2022/09/24 06:05:33;;;;;;;15.60;10.40;;;;;;;7.28;100.00;99306.02;101075;1336;23220;-32
2022/09/24 06:08:00;;;;;;;16.20;10.40;;;;;;;7.34;100.00;99306.55;100795;1330;23116;-36
2022/09/24 06:10:25;;;;;;;16.00;9.60;;;;;;;7.41;100.00;99303.96;101054;1323;24349;-31
2022/09/24 06:12:52;;;;;;;22.10;12.10;;;;;;;7.45;100.00;99303.42;101084;1327;24305;-37
2022/09/24 06:15:19;;;;;;;22.30;10.60;;;;;;;7.53;100.00;99302.80;101088;1336;23100;-35
2022/09/24 06:17:45;;;;;;;17.50;8.40;;;;;;;7.58;100.00;99305.16;101051;1335;24297;-35
2022/09/24 06:20:12;;;;;;;16.50;10.20;;;;;;;7.65;100.00;99305.81;101065;1328;24228;-32
2022/09/24 06:22:39;;;;;;;15.60;10.20;;;;;;;7.74;100.00;99305.02;101113;1336;24296;-35
2022/09/24 06:25:06;;;;;;;22.10;11.20;;;;;;;7.87;100.00;99305.89;101063;1336;24462;-35
2022/09/24 06:27:31;;;;;;;14.80;6.80;;;;;;;7.99;100.00;99305.54;101027;1336;22871;-35
2022/09/24 06:29:57;;;;;;;15.20;9.50;;;;;;;8.07;100.00;99306.40;101042;1334;22893;-35
2022/09/24 06:32:23;;;;;;;17.00;10.30;;;;;;;8.17;100.00;99304.61;100930;1335;22840;-36
2022/09/24 06:34:49;;;;;;;12.40;7.60;;;;;;;8.28;100.00;99305.27;100894;1328;22991;-32
2022/09/24 06:37:15;;;;;;;12.10;8.30;;;;;;;8.37;100.00;99310.20;101035;1334;24372;-32
2022/09/24 06:39:41;;;;;;;8.80;7.00;;;;;;;8.47;100.00;99309.85;101165;1334;23266;-36
2022/09/24 06:42:07;;;;;;;14.00;8.00;;;;;;;8.55;100.00;99314.69;101085;1328;23100;-35
2022/09/24 06:44:34;;;;;;;18.20;8.60;;;;;;;8.66;100.00;99308.66;101069;1328;24408;-33
2022/09/24 06:47:00;;;;;;;11.70;7.70;;;;;;;8.74;100.00;99306.37;101058;1336;22509;-33
2022/09/24 06:49:26;;;;;;;12.00;7.80;;;;;;;8.78;100.00;99304.41;100919;1336;22763;-37
2022/09/24 06:51:53;;;;;;;11.20;6.80;;;;;;;8.84;100.00;99304.92;101163;1328;24875;-33
2022/09/24 06:54:19;;;;;;;14.20;7.40;;;;;;;8.96;100.00;99306.21;101053;1334;22495;-33
2022/09/24 06:56:45;;;;;;;11.00;7.60;;;;;;;9.00;100.00;99307.29;101150;1328;22745;-33
2022/09/24 06:59:11;;;;;;;13.70;6.40;;;;;;;9.07;100.00;99312.66;101107;1334;22544;-34
2022/09/24 07:01:37;;;;;;;20.50;9.10;;;;;;;9.16;100.00;99309.59;101103;1334;22739;-34
2022/09/24 07:04:02;;;;;;;15.40;8.30;;;;;;;9.28;100.00;99310.98;101065;1334;22498;-38
2022/09/24 07:07:28;;;;;;;17.60;9.80;;;;;;;9.42;100.00;99312.36;101049;1334;24414;-37
2022/09/24 07:09:13;;;;;;;22.90;10.60;;;;;;;9.55;100.00;99310.77;101086;1328;22904;-35
2022/09/24 07:11:39;;;;;;;20.70;8.80;;;;;;;9.72;100.00;99314.33;101071;1333;23015;-37
2022/09/24 07:14:04;;;;;;;14.40;7.50;;;;;;;9.84;99.72;99317.70;101053;1320;22875;-35
2022/09/24 07:16:30;;;;;;;5.60;4.50;;;;;;;10.01;100.00;99313.41;101133;1324;22754;-37
2022/09/24 07:18:57;;;;;;;12.30;5.80;;;;;;;10.15;99.27;99318.89;100940;1335;23117;-34
2022/09/24 07:21:22;;;;;;;7.00;5.30;;;;;;;10.37;100.00;99317.95;101107;1320;23132;-37
2022/09/24 07:23:48;;;;;;;14.10;6.90;;;;;;;10.54;96.98;99319.23;100859;1336;24364;-35
2022/09/24 07:26:13;;;;;;;11.80;6.30;;;;;;;10.74;94.17;99316.74;101081;1328;22729;-37
2022/09/24 07:28:39;;;;;;;14.30;6.90;;;;;;;11.04;96.44;99323.07;101087;1336;22793;-34
2022/09/24 07:31:05;;;;;;;15.90;6.40;;;;;;;11.26;96.60;99323.08;101131;1320;24299;-38
2022/09/24 07:33:31;;;;;;;14.70;5.20;;;;;;;11.42;95.31;99324.05;101108;1328;22883;-34
2022/09/24 07:35:57;;;;;;;7.00;3.50;;;;;;;11.56;95.86;99330.81;101140;1334;24364;-35
2022/09/24 07:38:23;;;;;;;13.60;6.00;;;;;;;11.73;94.38;99337.50;101114;1328;22501;-35
2022/09/24 07:40:48;;;;;;;7.70;5.90;;;;;;;11.87;93.72;99335.63;100924;1336;25905;-38
2022/09/24 07:43:14;;;;;;;10.90;6.30;;;;;;;11.97;93.23;99333.42;101089;1328;25929;-38
2022/09/24 07:45:40;;;;;;;8.10;5.90;;;;;;;12.17;93.12;99330.13;100966;1328;23220;-37
2022/09/24 07:48:07;;;;;;;8.10;5.20;;;;;;;12.36;90.21;99334.45;101093;1335;23094;-34
2022/09/24 07:50:34;;;;;;;6.60;4.10;;;;;;;12.58;87.63;99333.73;101140;1334;23092;-38
2022/09/24 07:52:59;;;;;;;8.00;3.80;;;;;;;12.54;83.24;99334.45;101094;1334;22896;-35
2022/09/24 07:55:25;;;;;;;8.00;4.10;;;;;;;12.59;83.73;99334.72;101084;1336;22504;-37
2022/09/24 07:57:52;;;;;;;5.60;3.10;;;;;;;12.79;82.95;99334.21;101086;1336;24362;-38
2022/09/24 08:00:19;;;;;;;9.30;4.60;;;;;;;13.01;81.17;99328.52;101121;1336;22516;-34
2022/09/24 08:02:45;;;;;;;4.60;3.80;;;;;;;13.30;79.43;99331.61;101097;1328;23263;-37
2022/09/24 08:05:11;;;;;;;6.30;4.90;;;;;;;13.59;79.56;99335.64;101140;1323;22761;-35
2022/09/24 08:07:37;;;;;;;4.10;3.10;;;;;;;13.78;78.60;99336.54;101125;1334;22884;-37
2022/09/24 08:10:04;;;;;;;4.80;3.20;;;;;;;13.89;78.28;99335.17;101150;1327;23110;-34
2022/09/24 08:12:30;;;;;;;3.00;2.40;;;;;;;13.88;76.59;99333.75;101016;1333;22948;-34
2022/09/24 08:14:56;;;;;;;5.90;4.00;;;;;;;13.99;77.04;99331.35;101140;1336;22558;-34
2022/09/24 08:17:22;;;;;;;6.20;3.90;;;;;;;14.25;78.22;99330.25;100986;1328;22547;-37
2022/09/24 08:19:50;;;;;;;4.10;3.50;;;;;;;14.48;76.22;99327.89;101120;1334;22732;-34
2022/09/24 08:22:16;;;;;;;6.40;5.20;;;;;;;14.58;74.84;99327.60;100876;1337;23081;-36
2022/09/24 08:24:42;;;;;;;6.80;4.40;;;;;;;14.62;72.93;99326.96;101082;1336;24289;-36
2022/09/24 08:27:08;;;;;;;6.60;4.40;;;;;;;14.58;74.36;99328.80;101075;1334;23185;-36
2022/09/24 08:29:33;;;;;;;3.20;2.40;;;;;;;14.63;71.75;99330.73;101106;1328;22846;-35
2022/09/24 08:32:00;;;;;;;5.90;3.80;;;;;;;14.65;70.47;99327.98;101115;1328;25291;-36
2022/09/24 08:34:28;;;;;;;5.30;2.90;;;;;;;14.76;67.98;99325.98;101088;1334;22774;-33
2022/09/24 08:36:54;;;;;;;4.10;2.60;;;;;;;14.81;67.22;99334.28;101046;1328;22481;-36
2022/09/24 08:39:19;;;;;;;5.40;4.10;;;;;;;14.79;65.40;99334.52;100838;1336;23216;-34
2022/09/24 08:41:53;;;;;;;1.90;1.50;;;;;;;14.71;67.67;99335.48;100837;1328;24862;-36
2022/09/24 08:47:33;;;;;;;4.60;2.80;;;;;;;15.23;68.68;99328.78;101071;1336;23093;-36
2022/09/24 08:49:54;;;;;;;8.20;2.90;;;;;;;15.65;65.79;99322.91;101037;1334;23233;-36
2022/09/24 08:52:25;;;;;;;4.10;2.60;;;;;;;15.84;66.04;99322.01;100388;1337;690454;-34
2022/09/24 08:54:51;;;;;;;6.70;3.00;;;;;;;16.22;65.71;99321.14;101009;1334;23233;-36
2022/09/24 08:57:17;;;;;;;4.80;2.90;;;;;;;16.49;66.45;99316.45;101075;1332;23221;-36
2022/09/24 08:59:44;;;;;;;3.50;2.70;;;;;;;16.75;65.05;99318.06;101123;1324;22771;-34
2022/09/24 09:02:17;;;;;;;3.00;2.40;;;;;;;16.88;63.10;99316.73;101046;1324;22741;-34
2022/09/24 09:04:48;;;;;;;4.70;3.00;;;;;;;17.11;62.74;99310.67;101105;1336;23998;-34
2022/09/24 09:07:19;;;;;;;4.40;2.60;;;;;;;17.39;61.62;99304.27;101166;1331;22754;-36
2022/09/24 09:09:47;;;;;;;4.20;3.00;;;;;;;17.44;58.09;99301.80;101071;1334;24479;-36
2022/09/24 09:12:18;;;;;;;17.80;11.20;;;;;;;17.66;61.02;99301.00;101052;1335;22879;-34
2022/09/24 09:14:47;;;;;;;6.90;3.40;;;;;;;17.99;59.33;99300.06;101070;1336;23205;-35
2022/09/24 09:17:19;;;;;;;3.00;2.80;;;;;;;18.15;58.64;99298.34;101093;1320;23097;-36
2022/09/24 09:19:47;;;;;;;2.60;2.20;;;;;;;18.26;55.21;99295.56;101064;1327;22748;-36
2022/09/24 09:22:14;;;;;;;5.10;3.50;;;;;;;18.31;55.42;99289.39;101082;1331;22904;-34
2022/09/24 09:24:45;;;;;;;9.10;5.50;;;;;;;18.36;53.59;99284.68;101060;1334;23215;-34
2022/09/24 09:27:13;;;;;;;4.30;3.30;;;;;;;18.47;53.75;99285.10;101030;1336;23208;-37
2022/09/24 09:29:40;;;;;;;4.60;3.40;;;;;;;18.51;51.95;99281.08;101148;1334;22980;-38
2022/09/24 09:32:15;;;;;;;3.40;2.50;;;;;;;18.67;52.14;99282.76;101102;1333;22738;-39
2022/09/24 09:34:46;;;;;;;2.60;2.00;;;;;;;18.81;51.23;99286.06;101122;1336;23866;-36
2022/09/24 09:37:14;;;;;;;3.10;2.20;;;;;;;18.77;49.66;99286.50;101094;1336;24289;-38
2022/09/24 09:39:49;;;;;;;4.20;2.90;;;;;;;18.67;48.87;99286.23;101103;1334;25361;-36
2022/09/24 09:42:20;;;;;;;30.60;23.30;;;;;;;18.43;49.61;99286.20;101131;1331;26610;-36
2022/09/24 09:44:46;;;;;;;5.10;3.70;;;;;;;18.67;51.23;99282.92;101060;1328;22703;-36
2022/09/24 09:47:18;;;;;;;7.50;2.90;;;;;;;18.78;50.77;99287.23;100835;1337;23213;-34
2022/09/24 09:49:44;;;;;;;4.80;3.10;;;;;;;18.96;49.33;99287.66;101054;1327;25213;-34
2022/09/24 09:52:14;;;;;;;0.50;0.50;;;;;;;19.34;50.52;99279.04;101078;1326;22770;-36
2022/09/24 09:54:40;;;;;;;3.70;2.20;;;;;;;19.45;49.49;99276.37;101080;1339;24353;-33
2022/09/24 09:57:11;;;;;;;3.30;2.30;;;;;;;19.55;49.12;99277.07;101033;1339;24909;-34
2022/09/24 09:59:36;;;;;;;3.30;2.20;;;;;;;19.72;48.12;99280.69;101077;1335;22737;-37
2022/09/24 10:02:02;;;;;;;6.40;2.80;;;;;;;19.80;47.66;99280.48;101083;1331;22705;-38
2022/09/24 10:04:33;;;;;;;2.70;1.80;;;;;;;20.06;47.46;99282.58;101030;1324;22940;-35
2022/09/24 10:07:03;;;;;;;2.40;1.10;;;;;;;20.48;45.66;99280.74;101067;1335;24293;-34
2022/09/24 10:09:28;;;;;;;3.80;1.90;;;;;;;20.38;44.76;99279.69;101057;1331;22719;-37
2022/09/24 10:12:06;;;;;;;5.60;2.00;;;;;;;20.15;44.89;99279.27;100895;1333;23237;-35
2022/09/24 10:14:31;;;;;;;5.00;2.20;;;;;;;20.19;45.25;99276.24;101103;1338;23242;-37
2022/09/24 10:16:57;;;;;;;15.60;1.60;;;;;;;20.33;45.56;99273.77;101041;1331;24572;-35
2022/09/24 10:19:24;;;;;;;1.60;1.00;;;;;;;20.40;44.87;99275.28;101023;1327;25908;-35
2022/09/24 10:21:50;;;;;;;4.00;1.80;;;;;;;20.51;43.70;99279.52;101046;1336;24575;-34
2022/09/24 10:24:19;;;;;;;1.80;1.00;;;;;;;20.52;44.23;99276.83;101015;1339;24343;-35
2022/09/24 10:26:45;;;;;;;3.60;0.60;;;;;;;20.69;43.97;99276.67;101072;1318;22742;-40
2022/09/24 10:31:46;;;;;;;3.40;1.90;;;;;;;20.34;41.94;99282.35;101047;1335;22891;-36
2022/09/24 10:34:18;;;;;;;6.80;4.50;;;;;;;20.13;42.82;99280.52;100844;1331;22512;-37
2022/09/24 10:36:49;;;;;;;2.00;1.70;;;;;;;20.28;42.66;99281.27;101055;1336;25536;-37
2022/09/24 10:39:14;;;;;;;2.10;1.70;;;;;;;20.55;42.57;99277.40;101087;1334;22739;-37
2022/09/24 10:41:45;;;;;;;2.40;1.60;;;;;;;20.34;41.85;99281.14;101048;1327;22924;-37
2022/09/24 10:44:10;;;;;;;4.00;2.20;;;;;;;20.11;41.18;99277.34;100850;1339;22855;-34
2022/09/24 10:46:41;;;;;;;27.10;4.70;;;;;;;19.56;42.13;99276.70;101040;1324;22758;-37
2022/09/24 10:49:15;;;;;;;3.40;1.60;;;;;;;19.14;42.24;99274.41;101081;1326;24460;-34
2022/09/24 10:51:44;;;;;;;3.30;1.70;;;;;;;18.53;42.84;99274.69;101056;1339;22507;-34
2022/09/24 10:54:17;;;;;;;3.00;1.50;;;;;;;18.08;43.94;99277.75;100850;1336;23223;-37
2022/09/24 10:56:50;;;;;;;2.50;1.40;;;;;;;17.96;43.25;99275.11;101063;1338;24337;-37
2022/09/24 10:59:23;;;;;;;1.90;1.10;;;;;;;17.54;44.66;99273.78;101064;1327;25762;-34
2022/09/24 11:02:08;;;;;;;2.00;1.30;;;;;;;17.50;44.88;99274.14;101108;1331;26558;-33
2022/09/24 11:04:40;;;;;;;2.90;1.20;;;;;;;17.51;45.39;99276.29;100908;1339;23096;-35
2022/09/24 11:07:07;;;;;;;6.80;1.80;;;;;;;17.34;46.36;99275.87;101122;1334;22509;-36
2022/09/24 11:09:38;;;;;;;7.20;2.40;;;;;;;17.19;47.38;99275.77;101060;1331;22704;-35
2022/09/24 11:12:08;;;;;;;3.80;2.20;;;;;;;17.19;48.06;99271.31;101047;1331;23093;-33
2022/09/24 11:14:43;;;;;;;8.60;2.30;;;;;;;17.22;47.55;99269.80;100877;1336;24473;-36
2022/09/24 11:17:09;;;;;;;2.50;1.60;;;;;;;16.95;49.04;99273.02;101017;1318;23108;-33
2022/09/24 11:19:42;;;;;;;3.90;2.60;;;;;;;17.00;49.86;99273.65;101102;1339;24409;-35
2022/09/24 11:22:23;;;;;;;3.40;2.20;;;;;;;17.20;50.01;99274.43;101076;1335;25224;-35
2022/09/24 11:25:03;;;;;;;4.20;1.30;;;;;;;17.37;49.19;99272.07;101068;1327;24327;-36
2022/09/24 11:27:33;;;;;;;5.50;2.10;;;;;;;17.41;49.20;99276.80;100966;1336;22866;-37
2022/09/24 11:30:05;;;;;;;2.40;1.50;;;;;;;17.66;48.02;99278.89;100856;1337;22494;-35
2022/09/24 11:32:37;;;;;;;1.50;1.00;;;;;;;17.84;47.11;99271.81;101108;1336;24079;-36
2022/09/24 11:35:23;;;;;;;2.10;1.80;;;;;;;18.00;46.71;99274.90;100907;1336;22609;-37
2022/09/24 11:37:57;;;;;;;2.50;1.30;;;;;;;18.32;46.28;99267.48;101076;1331;24579;-37